Historique des mesures à Cassis (13260), France
Quotidien Résumé Janvier 4, 2020 Unités:  Métrique    US   Métrique/US
Quotidien Hebdomadaire Mensuel Annuel
  Maximum: Minimum: Moyenne:
Température: 30.5 °C 19.3 °C 25.2 °C
Point de rosée: 14.5 °C 9.3 °C 11.6 °C
Humidité: 55% 35% 43%
Vitesse du vent: 28.4km/h 0km/h 9.5km/h
Rafales: 33.5km/h - -
Vent- - WSW
Pression: 1014.4 hPa 1011.6 hPa -
Précipitations: 0.0 mm    
Historical Graphs
 
 
Mesures pour : Janvier 4, 2020
Heure Temperature Point de rosée Pression Vent Vitesse du vent Rafales Humidité Pluie (par heure)
00:11 22.8 °C 9.5 °C 1011.6 hPa NNW 8.3 km/h 33.5 km/h 43% 0.0 mm
01:11 22.1 °C 9.9 °C 1011.7 hPa North 9.7 km/h 23 km/h 46% 0.0 mm
02:11 21.4 °C 9.6 °C 1012.3 hPa WNW 8.3 km/h 21.6 km/h 47% 0.0 mm
03:11 20.9 °C 9.8 °C 1013.0 hPa NW 2.9 km/h 11.2 km/h 49% 0.0 mm
04:11 20.2 °C 9.8 °C 1012.8 hPa NNW 4.3 km/h 11.2 km/h 51% 0.0 mm
05:11 19.8 °C 9.9 °C 1013.1 hPa North 5.8 km/h 11.2 km/h 53% 0.0 mm
06:11 19.3 °C 9.8 °C 1013.1 hPa NW 5 km/h 10.1 km/h 54% 0.0 mm
07:11 19.3 °C 10 °C 1013.6 hPa NNE 3.2 km/h 11.2 km/h 55% 0.0 mm
08:11 23.5 °C 11.2 °C 1014.0 hPa NNW 4.7 km/h 7.2 km/h 46% 0.0 mm
09:11 22.9 °C 11.3 °C 1014.3 hPa NW 4 km/h 14.4 km/h 48% 0.0 mm
10:11 24.9 °C 12.5 °C 1014.0 hPa NW 3.2 km/h 9.4 km/h 46% 0.0 mm
11:11 29.1 °C 13.8 °C 1014.2 hPa SE 5 km/h 7.6 km/h 39% 0.0 mm
12:11 30.4 °C 14.5 °C 1014.4 hPa ESE 2.5 km/h 8.3 km/h 38% 0.0 mm
13:11 30.5 °C 13.7 °C 1014.2 hPa West 27.4 km/h 29.5 km/h 36% 0.0 mm
14:11 28.9 °C 13.1 °C 1014.2 hPa West 28.4 km/h 29.9 km/h 38% 0.0 mm
15:11 28.6 °C 12.9 °C 1014.1 hPa WNW 26.6 km/h 32.4 km/h 38% 0.0 mm
16:11 28.9 °C 13.1 °C 1013.9 hPa WNW 14.4 km/h 25.2 km/h 38% 0.0 mm
17:11 29.4 °C 13.1 °C 1013.4 hPa West 15.1 km/h 31.7 km/h 37% 0.0 mm
18:11 29.3 °C 13.1 °C 1013.4 hPa WNW 6.1 km/h 26.6 km/h 37% 0.0 mm
19:11 28 °C 13.2 °C 1013.2 hPa WNW 20.9 km/h 29.5 km/h 40% 0.0 mm
20:11 27.1 °C 12 °C 1013.2 hPa NW 13 km/h 19.8 km/h 39% 0.0 mm
21:11 25.8 °C 12.2 °C 1013.4 hPa Calm   6.8 km/h 43% 0.0 mm
22:11 26.8 °C 10 °C 1013.9 hPa NNW 9 km/h 14 km/h 35% 0.0 mm
23:11 25.6 °C 9.3 °C 1013.7 hPa Calm   2.5 km/h 36% 0.0 mm
Observations météo à CASSIS
WU-History script by Weather Underground - 2 mb